createdAt,value
2022-07-25T00:00:25.955Z,82.83
2022-07-25T00:02:59.575Z,83.11
2022-07-25T00:05:37.619Z,83.39
2022-07-25T00:08:07.861Z,83.76
2022-07-25T00:10:40.690Z,83.75
2022-07-25T00:13:14.132Z,83.80
2022-07-25T00:15:48.050Z,83.71
2022-07-25T00:18:20.956Z,84.01
2022-07-25T00:20:54.368Z,84.40
2022-07-25T00:23:27.913Z,84.75
2022-07-25T00:26:00.914Z,85.06
2022-07-25T00:28:34.426Z,85.25
2022-07-25T00:31:07.615Z,85.35
2022-07-25T00:33:41.423Z,85.30
2022-07-25T00:36:14.240Z,85.45
2022-07-25T00:38:46.987Z,85.35
2022-07-25T00:41:19.774Z,85.47
2022-07-25T00:43:52.488Z,85.30
2022-07-25T00:46:25.477Z,85.26
2022-07-25T00:49:00.318Z,85.15
2022-07-25T00:51:33.346Z,85.20
2022-07-25T00:54:06.763Z,85.31
2022-07-25T00:56:40.521Z,85.63
2022-07-25T00:59:14.171Z,85.85
2022-07-25T01:01:48.674Z,86.08
2022-07-25T01:04:21.577Z,86.31
2022-07-25T01:06:54.465Z,86.55
2022-07-25T01:09:27.927Z,86.90
2022-07-25T01:12:00.825Z,86.44
2022-07-25T01:14:33.705Z,86.28
2022-07-25T01:17:07.304Z,86.33
2022-07-25T01:19:40.734Z,86.33
2022-07-25T01:22:13.816Z,86.58
2022-07-25T01:24:47.249Z,86.90
2022-07-25T01:27:20.142Z,86.74
2022-07-25T01:29:53.244Z,87.01
2022-07-25T01:32:26.066Z,87.24
2022-07-25T01:34:59.174Z,87.32
2022-07-25T01:37:32.269Z,87.54
2022-07-25T01:40:05.639Z,87.56
2022-07-25T01:42:39.121Z,87.57
2022-07-25T01:45:12.982Z,87.22
2022-07-25T01:47:45.782Z,87.10
2022-07-25T01:50:18.744Z,87.23
2022-07-25T01:52:51.610Z,87.09
2022-07-25T01:55:25.551Z,87.36
2022-07-25T01:57:59.838Z,87.26
2022-07-25T02:00:33.034Z,86.94
2022-07-25T02:03:23.611Z,86.86
2022-07-25T02:05:57.052Z,86.88
2022-07-25T02:08:31.697Z,86.82
2022-07-25T02:11:04.618Z,86.88
2022-07-25T02:13:38.086Z,86.81
2022-07-25T02:16:11.357Z,86.91
2022-07-25T02:18:44.871Z,87.00
2022-07-25T02:21:17.768Z,87.27
2022-07-25T02:23:51.369Z,87.67
2022-07-25T02:26:24.936Z,87.83
2022-07-25T02:28:58.825Z,88.12
2022-07-25T02:31:31.731Z,88.05
2022-07-25T02:34:04.935Z,87.93
2022-07-25T02:36:37.993Z,88.06
2022-07-25T02:39:10.983Z,88.19
2022-07-25T02:41:44.794Z,88.44
2022-07-25T02:44:17.672Z,88.35
2022-07-25T02:46:50.760Z,88.31
2022-07-25T02:49:23.694Z,88.33
2022-07-25T02:51:58.052Z,88.45
2022-07-25T02:54:30.958Z,88.63
2022-07-25T02:57:03.920Z,88.32
2022-07-25T02:59:36.775Z,87.83
2022-07-25T03:02:09.563Z,87.53
2022-07-25T03:04:43.119Z,86.41
2022-07-25T03:07:16.373Z,86.41
2022-07-25T03:09:49.156Z,86.55
2022-07-25T03:12:22.317Z,86.32
2022-07-25T03:14:55.105Z,86.13
2022-07-25T03:17:29.741Z,85.87
2022-07-25T03:20:03.355Z,85.72
2022-07-25T03:22:36.978Z,85.55
2022-07-25T03:25:15.673Z,85.35
2022-07-25T03:27:46.511Z,85.15
2022-07-25T03:30:19.765Z,85.09
2022-07-25T03:32:52.601Z,84.92
2022-07-25T03:35:26.411Z,84.58
2022-07-25T03:37:59.268Z,84.44
2022-07-25T03:40:33.573Z,84.23
2022-07-25T03:43:06.893Z,84.13
2022-07-25T03:45:40.158Z,84.37
2022-07-25T03:48:14.639Z,84.47
2022-07-25T03:50:48.229Z,84.35
2022-07-25T03:53:21.613Z,84.35
2022-07-25T03:55:55.373Z,83.75
2022-07-25T03:58:28.232Z,83.24
2022-07-25T04:01:01.584Z,82.29
2022-07-25T04:03:34.874Z,81.55
2022-07-25T04:06:07.778Z,81.43
2022-07-25T04:08:41.257Z,80.87
2022-07-25T04:11:14.459Z,80.00
2022-07-25T04:13:48.490Z,79.57
2022-07-25T04:16:22.230Z,79.15
2022-07-25T04:18:57.577Z,78.22
2022-07-25T04:21:30.469Z,77.86
2022-07-25T04:24:04.393Z,77.66
2022-07-25T04:26:37.520Z,77.55
2022-07-25T04:29:10.826Z,77.29
2022-07-25T04:31:43.734Z,77.23
2022-07-25T04:34:16.603Z,77.36
2022-07-25T04:36:49.361Z,77.74
2022-07-25T04:39:22.618Z,77.34
2022-07-25T04:41:55.373Z,76.97
2022-07-25T04:44:28.546Z,76.56
2022-07-25T04:47:01.228Z,76.50
2022-07-25T04:49:34.571Z,76.29
2022-07-25T04:52:07.709Z,76.31
2022-07-25T04:54:40.550Z,76.61
2022-07-25T04:57:13.465Z,76.64
2022-07-25T04:59:46.465Z,76.64
2022-07-25T05:02:19.319Z,76.38
2022-07-25T05:04:52.802Z,76.49
2022-07-25T05:07:25.732Z,76.74
2022-07-25T05:09:59.620Z,76.74
2022-07-25T05:12:33.228Z,76.68
2022-07-25T05:15:08.262Z,76.59
2022-07-25T05:17:41.750Z,76.06
2022-07-25T05:20:15.749Z,75.83
2022-07-25T05:22:49.595Z,75.62
2022-07-25T05:25:22.984Z,75.12
2022-07-25T05:27:57.524Z,75.15
2022-07-25T05:30:30.427Z,75.17
2022-07-25T05:33:03.323Z,75.21
2022-07-25T05:35:36.167Z,75.44
2022-07-25T05:38:08.904Z,75.45
2022-07-25T05:40:42.014Z,73.52
2022-07-25T05:43:14.838Z,73.52
2022-07-25T05:45:48.070Z,72.78
2022-07-25T05:48:20.807Z,72.93
2022-07-25T05:50:53.873Z,73.17
2022-07-25T05:53:27.037Z,72.80
2022-07-25T05:56:00.054Z,72.40
2022-07-25T05:58:33.451Z,72.09
2022-07-25T06:01:06.287Z,71.23
2022-07-25T06:03:39.871Z,70.41
2022-07-25T06:06:13.241Z,69.64
2022-07-25T06:08:46.960Z,69.64
2022-07-25T06:11:20.726Z,69.22
2022-07-25T06:13:54.012Z,68.76
2022-07-25T06:16:27.693Z,68.13
2022-07-25T06:19:00.454Z,68.19
2022-07-25T06:21:33.857Z,67.90
2022-07-25T06:24:07.465Z,67.90
2022-07-25T06:26:40.213Z,67.42
2022-07-25T06:29:12.795Z,67.19
2022-07-25T06:31:47.519Z,66.61
2022-07-25T06:34:21.119Z,66.61
2022-07-25T06:36:53.946Z,67.02
2022-07-25T06:39:28.854Z,66.56
2022-07-25T06:42:04.399Z,66.21
2022-07-25T06:44:38.954Z,65.52
2022-07-25T06:47:14.060Z,65.95
2022-07-25T06:49:47.871Z,66.02
2022-07-25T06:52:21.012Z,65.05
2022-07-25T06:54:53.929Z,65.53
2022-07-25T06:57:26.906Z,64.62
2022-07-25T07:00:00.005Z,64.07
2022-07-25T07:02:33.098Z,63.08
2022-07-25T07:05:06.403Z,61.21
2022-07-25T07:07:40.691Z,60.12
2022-07-25T07:10:15.039Z,58.65
2022-07-25T07:12:48.883Z,57.27
2022-07-25T07:15:22.250Z,57.76
2022-07-25T07:17:55.709Z,57.88
2022-07-25T07:20:28.879Z,55.79
2022-07-25T07:23:01.974Z,54.77
2022-07-25T07:25:35.949Z,55.22
2022-07-25T07:28:10.323Z,54.07
2022-07-25T07:31:14.482Z,53.72
2022-07-25T07:33:18.271Z,53.55
2022-07-25T07:35:52.877Z,52.37
2022-07-25T07:38:27.162Z,51.94
2022-07-25T07:41:00.163Z,51.91
2022-07-25T07:43:33.329Z,51.94
2022-07-25T07:46:06.741Z,51.62
2022-07-25T07:48:39.923Z,51.79
2022-07-25T07:51:12.727Z,51.46
2022-07-25T07:54:03.489Z,51.65
2022-07-25T07:56:36.385Z,51.44
2022-07-25T07:59:09.857Z,51.95
2022-07-25T08:01:43.008Z,51.47
2022-07-25T08:04:16.534Z,51.06
2022-07-25T08:06:49.727Z,50.24
2022-07-25T08:09:24.885Z,50.02
2022-07-25T08:12:00.341Z,50.93
2022-07-25T08:14:43.646Z,50.50
2022-07-25T08:17:16.642Z,48.95
2022-07-25T08:19:51.299Z,48.58
2022-07-25T08:22:24.083Z,48.56
2022-07-25T08:24:56.931Z,47.83
2022-07-25T08:27:29.931Z,48.29
2022-07-25T08:30:03.273Z,46.57
2022-07-25T08:32:38.409Z,45.90
2022-07-25T08:35:11.717Z,45.41
2022-07-25T08:37:44.743Z,45.93
2022-07-25T08:40:20.476Z,47.21
2022-07-25T08:42:55.340Z,47.11
2022-07-25T08:45:30.285Z,47.31
2022-07-25T08:48:03.410Z,46.95
2022-07-25T08:50:36.487Z,46.95
2022-07-25T08:53:32.275Z,46.50
2022-07-25T08:55:46.010Z,46.69
2022-07-25T08:58:21.802Z,47.01
2022-07-25T09:00:54.601Z,47.19
2022-07-25T09:03:28.964Z,47.08
2022-07-25T09:06:01.001Z,47.18
2022-07-25T09:08:33.768Z,47.30
2022-07-25T09:11:07.240Z,47.34
2022-07-25T09:13:40.679Z,47.02
2022-07-25T09:16:13.604Z,47.74
2022-07-25T09:18:48.041Z,48.19
2022-07-25T09:21:21.701Z,48.31
2022-07-25T09:23:54.781Z,48.54
2022-07-25T09:26:27.724Z,48.69
2022-07-25T09:29:02.336Z,48.95
2022-07-25T09:31:35.626Z,48.92
2022-07-25T09:34:10.326Z,48.79
2022-07-25T09:36:58.426Z,48.90
2022-07-25T09:39:45.005Z,48.72
2022-07-25T09:42:24.327Z,48.39
2022-07-25T09:45:15.261Z,48.72
2022-07-25T09:47:58.255Z,49.21
2022-07-25T09:50:33.646Z,49.60
2022-07-25T09:53:06.672Z,50.37
2022-07-25T09:55:40.453Z,50.75
2022-07-25T09:58:15.060Z,50.99
2022-07-25T10:00:48.283Z,50.81
2022-07-25T10:03:44.922Z,50.63
2022-07-25T10:06:55.780Z,50.45
2022-07-25T10:09:28.786Z,50.05
2022-07-25T10:12:10.936Z,49.92
2022-07-25T10:14:44.491Z,49.79
2022-07-25T10:17:22.861Z,50.11
2022-07-25T10:19:58.905Z,49.79
2022-07-25T10:22:57.808Z,49.77
2022-07-25T10:25:24.432Z,49.63
2022-07-25T10:28:04.336Z,50.02
2022-07-25T10:30:40.614Z,50.17
2022-07-25T10:33:20.042Z,50.26
2022-07-25T10:35:52.812Z,50.25
2022-07-25T10:38:28.526Z,50.46
2022-07-25T10:41:03.670Z,50.59
2022-07-25T10:43:46.857Z,50.50
2022-07-25T10:46:26.901Z,50.51
2022-07-25T10:49:02.591Z,50.33
2022-07-25T10:51:41.926Z,51.12
2022-07-25T10:54:19.577Z,51.21
2022-07-25T10:57:00.666Z,51.68
2022-07-25T10:59:37.246Z,51.41
2022-07-25T11:02:18.566Z,49.47
2022-07-25T11:05:03.649Z,49.37
2022-07-25T11:07:37.159Z,49.74
2022-07-25T11:10:10.722Z,49.58
2022-07-25T11:12:46.525Z,48.96
2022-07-25T11:15:23.206Z,47.15
2022-07-25T11:17:56.578Z,47.78
2022-07-25T11:20:29.503Z,47.59
2022-07-25T11:23:02.872Z,47.02
2022-07-25T11:25:37.177Z,46.24
2022-07-25T11:28:10.284Z,46.49
2022-07-25T11:30:43.156Z,46.96
2022-07-25T11:33:17.631Z,46.76
2022-07-25T11:35:50.814Z,46.40
2022-07-25T11:38:25.236Z,46.06
2022-07-25T11:40:59.595Z,45.86
2022-07-25T11:43:32.560Z,46.45
2022-07-25T11:46:08.508Z,46.02
2022-07-25T11:48:43.265Z,46.58
2022-07-25T11:51:20.966Z,47.03
2022-07-25T11:53:53.977Z,47.94
2022-07-25T11:56:43.612Z,48.66
2022-07-25T11:59:03.176Z,49.13
2022-07-25T12:01:38.765Z,49.79
2022-07-25T12:04:17.533Z,49.26
2022-07-25T12:06:51.364Z,48.79
2022-07-25T12:09:24.932Z,47.97
2022-07-25T12:12:04.303Z,47.79
2022-07-25T12:14:45.436Z,48.63
2022-07-25T12:17:19.470Z,48.66
2022-07-25T12:19:52.361Z,48.39
2022-07-25T12:22:25.107Z,48.74
2022-07-25T12:24:58.123Z,49.07
2022-07-25T12:27:31.263Z,49.69
2022-07-25T12:30:05.963Z,50.15
2022-07-25T12:32:40.213Z,49.32
2022-07-25T12:35:15.456Z,48.67
2022-07-25T12:37:49.054Z,48.22
2022-07-25T12:40:22.927Z,48.50
2022-07-25T12:42:55.725Z,48.34
2022-07-25T12:45:28.976Z,48.74
2022-07-25T12:48:01.828Z,48.52
2022-07-25T12:50:35.161Z,48.49
2022-07-25T12:53:07.982Z,48.74
2022-07-25T12:55:41.639Z,48.36
2022-07-25T12:58:15.432Z,49.02
2022-07-25T13:00:49.531Z,49.10
2022-07-25T13:03:22.433Z,49.32
2022-07-25T13:05:55.354Z,49.31
2022-07-25T13:08:28.241Z,49.88
2022-07-25T13:11:01.832Z,50.24
2022-07-25T13:13:34.563Z,48.42
2022-07-25T13:16:08.223Z,47.80
2022-07-25T13:18:41.787Z,48.33
2022-07-25T13:21:15.629Z,49.57
2022-07-25T13:23:48.510Z,53.88
2022-07-25T13:26:23.198Z,59.66
2022-07-25T13:29:04.793Z,64.96
2022-07-25T13:31:31.225Z,67.89
2022-07-25T13:34:04.402Z,68.00
2022-07-25T13:36:40.489Z,69.17
2022-07-25T13:39:13.286Z,71.25
2022-07-25T13:41:46.258Z,69.73
2022-07-25T13:44:19.177Z,69.86
2022-07-25T13:46:52.338Z,70.26
2022-07-25T13:49:26.034Z,74.36
2022-07-25T13:51:59.268Z,77.87
2022-07-25T13:54:32.700Z,81.01
2022-07-25T13:57:05.926Z,83.68
2022-07-25T13:59:38.938Z,86.42
2022-07-25T14:02:12.536Z,89.22
2022-07-25T14:04:46.572Z,91.44
2022-07-25T14:07:20.244Z,93.11
2022-07-25T14:09:53.648Z,94.52
2022-07-25T14:12:26.412Z,95.27
2022-07-25T14:14:59.409Z,95.66
2022-07-25T14:17:32.632Z,95.77
2022-07-25T14:22:39.781Z,94.78
2022-07-25T14:25:14.518Z,93.59
2022-07-25T14:27:48.262Z,93.35
2022-07-25T14:30:21.637Z,93.38
2022-07-25T14:32:54.888Z,93.88
2022-07-25T14:35:32.264Z,94.25
2022-07-25T14:38:02.434Z,94.39
2022-07-25T14:40:36.121Z,94.93
2022-07-25T14:43:09.026Z,94.80
2022-07-25T14:45:43.547Z,94.52
2022-07-25T14:48:16.965Z,94.67
2022-07-25T14:50:50.239Z,94.08
2022-07-25T14:53:23.040Z,95.14
2022-07-25T14:55:55.922Z,94.54
2022-07-25T14:58:28.935Z,93.92
2022-07-25T15:01:02.832Z,93.69
2022-07-25T15:03:37.205Z,93.96
2022-07-25T15:06:10.865Z,94.28
2022-07-25T15:08:43.204Z,95.32
2022-07-25T15:11:17.128Z,96.21
2022-07-25T15:13:53.358Z,96.40
2022-07-25T15:16:26.618Z,96.55
2022-07-25T15:19:16.099Z,96.71
2022-07-25T15:21:36.698Z,97.82
2022-07-25T15:24:10.241Z,98.73
2022-07-25T15:26:43.760Z,98.84
2022-07-25T15:29:18.245Z,99.21
2022-07-25T15:31:51.901Z,99.67
2022-07-25T15:34:24.898Z,99.13
2022-07-25T15:36:57.649Z,98.20
2022-07-25T15:39:30.998Z,97.75
2022-07-25T15:42:03.836Z,97.73
2022-07-25T15:44:38.471Z,97.41
2022-07-25T15:47:11.600Z,97.07
2022-07-25T15:49:45.127Z,97.38
2022-07-25T15:52:18.938Z,97.97
2022-07-25T15:54:53.286Z,98.86
2022-07-25T15:57:25.189Z,99.20
2022-07-25T15:59:58.373Z,98.89
2022-07-25T16:02:31.275Z,99.49
2022-07-25T16:05:05.250Z,99.76
2022-07-25T16:07:38.357Z,99.83
2022-07-25T16:10:12.938Z,99.58
2022-07-25T16:12:45.742Z,99.81
2022-07-25T16:15:19.391Z,99.76
2022-07-25T16:18:00.228Z,99.88
2022-07-25T16:20:32.065Z,99.60
2022-07-25T16:23:04.188Z,99.74
2022-07-25T16:25:37.030Z,99.32
2022-07-25T16:28:11.463Z,99.04
2022-07-25T16:30:44.499Z,98.46
2022-07-25T16:33:17.463Z,95.30
2022-07-25T16:35:51.121Z,93.62
2022-07-25T16:38:24.207Z,93.33
2022-07-25T16:40:57.045Z,93.20
2022-07-25T16:43:29.806Z,93.54
2022-07-25T16:46:03.505Z,93.89
2022-07-25T16:48:36.368Z,94.41
2022-07-25T16:51:09.886Z,94.38
2022-07-25T16:53:43.205Z,94.94
2022-07-25T16:56:17.085Z,95.51
2022-07-25T16:58:49.986Z,95.90
2022-07-25T17:01:24.593Z,96.51
2022-07-25T17:03:57.869Z,96.75
2022-07-25T17:06:31.106Z,97.50
2022-07-25T17:09:05.425Z,97.99
2022-07-25T17:11:39.166Z,98.08
2022-07-25T17:14:12.014Z,97.69
2022-07-25T17:16:46.499Z,97.77
2022-07-25T17:19:20.199Z,97.57
2022-07-25T17:21:52.960Z,98.07
2022-07-25T17:24:26.398Z,98.09
2022-07-25T17:26:59.526Z,97.96
2022-07-25T17:29:32.642Z,98.53
2022-07-25T17:32:10.534Z,98.48
2022-07-25T17:34:43.396Z,98.72
2022-07-25T17:37:16.415Z,99.16
2022-07-25T17:39:49.169Z,100.00
2022-07-25T17:42:23.846Z,100.00
2022-07-25T17:44:57.648Z,100.00
2022-07-25T17:47:31.131Z,100.00
2022-07-25T17:50:05.555Z,100.00
2022-07-25T17:52:38.799Z,100.00
2022-07-25T17:55:12.408Z,100.00
2022-07-25T17:57:46.034Z,100.00
2022-07-25T18:00:19.445Z,100.00
2022-07-25T18:02:52.918Z,100.00
2022-07-25T18:05:26.068Z,100.00
2022-07-25T18:07:59.662Z,100.00
2022-07-25T18:10:32.965Z,100.00
2022-07-25T18:13:05.842Z,100.00
2022-07-25T18:15:39.357Z,100.00
2022-07-25T18:18:15.648Z,100.00
2022-07-25T18:20:48.025Z,100.00
2022-07-25T18:23:20.996Z,100.00
2022-07-25T18:25:54.513Z,100.00
2022-07-25T18:28:28.165Z,100.00
2022-07-25T18:31:01.079Z,100.00
2022-07-25T18:33:34.336Z,100.00
2022-07-25T18:36:07.989Z,100.00
2022-07-25T18:38:41.101Z,100.00
2022-07-25T18:41:31.361Z,100.00
2022-07-25T18:43:52.401Z,100.00
2022-07-25T18:46:24.469Z,100.00
2022-07-25T18:48:57.743Z,100.00
2022-07-25T18:51:31.109Z,100.00
2022-07-25T18:54:04.276Z,100.00
2022-07-25T18:56:37.511Z,100.00
2022-07-25T18:59:11.257Z,100.00
2022-07-25T19:01:44.851Z,100.00
2022-07-25T19:04:18.570Z,100.00
2022-07-25T19:06:51.577Z,100.00
2022-07-25T19:09:26.276Z,100.00
2022-07-25T19:12:01.294Z,100.00
2022-07-25T19:14:34.842Z,100.00
2022-07-25T19:17:08.165Z,100.00
2022-07-25T19:19:42.288Z,100.00
2022-07-25T19:22:16.047Z,100.00
2022-07-25T19:24:49.443Z,100.00
2022-07-25T19:27:25.724Z,100.00
2022-07-25T19:29:58.766Z,100.00
2022-07-25T19:32:31.519Z,100.00
2022-07-25T19:35:06.090Z,100.00
2022-07-25T19:37:39.278Z,100.00
2022-07-25T19:40:12.777Z,100.00
2022-07-25T19:42:46.955Z,100.00
2022-07-25T19:45:19.613Z,100.00
2022-07-25T19:47:52.711Z,100.00
2022-07-25T19:50:25.667Z,100.00
2022-07-25T19:52:58.461Z,100.00
2022-07-25T19:55:32.047Z,100.00
2022-07-25T19:58:06.907Z,100.00
2022-07-25T20:00:40.541Z,100.00
2022-07-25T20:03:13.410Z,100.00
2022-07-25T20:05:47.543Z,100.00
2022-07-25T20:08:20.667Z,100.00
2022-07-25T20:10:53.730Z,100.00
2022-07-25T20:13:28.183Z,100.00
2022-07-25T20:16:03.304Z,100.00
2022-07-25T20:18:36.670Z,100.00
2022-07-25T20:21:09.653Z,100.00
2022-07-25T20:23:42.737Z,100.00
2022-07-25T20:26:16.199Z,100.00
2022-07-25T20:28:48.994Z,100.00
2022-07-25T20:31:23.477Z,100.00
2022-07-25T20:33:56.382Z,100.00
2022-07-25T20:36:29.762Z,100.00
2022-07-25T20:39:02.810Z,100.00
2022-07-25T20:41:39.420Z,100.00
2022-07-25T20:44:12.788Z,100.00
2022-07-25T20:46:45.612Z,100.00
2022-07-25T20:49:18.706Z,100.00
2022-07-25T20:51:54.587Z,100.00
2022-07-25T20:54:26.356Z,100.00
2022-07-25T20:56:59.389Z,100.00
2022-07-25T20:59:32.506Z,100.00
2022-07-25T21:02:05.866Z,100.00
2022-07-25T21:04:39.635Z,100.00
2022-07-25T21:07:12.666Z,100.00
2022-07-25T21:09:45.497Z,100.00
2022-07-25T21:12:18.882Z,100.00
2022-07-25T21:14:51.540Z,100.00
2022-07-25T21:17:25.019Z,100.00
2022-07-25T21:19:58.282Z,100.00
2022-07-25T21:22:31.139Z,100.00
2022-07-25T21:25:04.903Z,100.00
2022-07-25T21:27:39.039Z,100.00
2022-07-25T21:30:13.142Z,100.00
2022-07-25T21:32:46.270Z,100.00
2022-07-25T21:35:19.088Z,100.00
2022-07-25T21:37:52.601Z,100.00
2022-07-25T21:40:25.487Z,100.00
2022-07-25T21:42:58.439Z,100.00
2022-07-25T21:45:31.569Z,100.00
2022-07-25T21:48:05.252Z,100.00
2022-07-25T21:50:43.950Z,100.00
2022-07-25T21:53:17.202Z,100.00
2022-07-25T21:55:50.247Z,100.00
2022-07-25T21:58:23.790Z,100.00
2022-07-25T22:00:56.603Z,100.00
2022-07-25T22:03:29.762Z,100.00
2022-07-25T22:06:02.489Z,100.00
2022-07-25T22:08:36.029Z,100.00
2022-07-25T22:11:20.759Z,100.00
2022-07-25T22:13:44.719Z,100.00
2022-07-25T22:16:18.639Z,100.00
2022-07-25T22:18:52.335Z,100.00
2022-07-25T22:21:25.613Z,100.00
2022-07-25T22:23:58.506Z,100.00
2022-07-25T22:26:31.483Z,100.00
2022-07-25T22:29:04.484Z,100.00
2022-07-25T22:31:39.370Z,100.00
2022-07-25T22:34:12.685Z,100.00
2022-07-25T22:36:45.660Z,100.00
2022-07-25T22:39:18.953Z,100.00
2022-07-25T22:41:51.853Z,100.00
2022-07-25T22:44:24.738Z,100.00
2022-07-25T22:46:57.471Z,100.00
2022-07-25T22:49:31.056Z,100.00
2022-07-25T22:52:04.342Z,100.00
2022-07-25T22:54:38.312Z,100.00
2022-07-25T22:57:11.222Z,100.00
2022-07-25T22:59:44.490Z,100.00
2022-07-25T23:02:17.898Z,100.00
2022-07-25T23:04:50.799Z,100.00
2022-07-25T23:07:23.768Z,100.00
2022-07-25T23:09:56.662Z,100.00
2022-07-25T23:12:29.473Z,100.00
2022-07-25T23:15:03.846Z,100.00
2022-07-25T23:17:36.741Z,100.00
2022-07-25T23:20:11.321Z,100.00
2022-07-25T23:22:44.736Z,100.00
2022-07-25T23:25:18.195Z,100.00
2022-07-25T23:27:50.954Z,100.00
2022-07-25T23:30:24.509Z,100.00
2022-07-25T23:32:57.665Z,100.00
2022-07-25T23:35:31.389Z,100.00
2022-07-25T23:38:04.730Z,100.00
2022-07-25T23:40:37.700Z,100.00
2022-07-25T23:43:10.562Z,100.00
2022-07-25T23:45:45.499Z,100.00
2022-07-25T23:48:19.856Z,100.00
2022-07-25T23:50:52.846Z,100.00
2022-07-25T23:53:25.757Z,100.00
2022-07-25T23:55:58.729Z,100.00
2022-07-25T23:58:31.770Z,100.00
